Time;durP1;ratioP1;P1;durP2;ratioP2;P2;SDS_P1;SDS_P2;PMS_P1;PMS_P2;Temp;Humidity;BMP_temperature;BMP_pressure;BME280_temperature;BME280_humidity;BME280_pressure;Samples;Min_cycle;Max_cycle;Signal;HPM_P1;HPM_P2
2024/01/18 00:01:17;;;;;;;90.60;36.90;;;0.30;99.90;;;;;;808396;177;26502;-79
2024/01/18 00:03:44;;;;;;;94.47;41.43;;;0.30;99.90;;;;;;803556;177;26474;-79
2024/01/18 00:06:10;;;;;;;96.93;42.17;;;0.30;99.90;;;;;;804784;177;26689;-79
2024/01/18 00:08:38;;;;;;;77.97;37.33;;;0.40;99.90;;;;;;806944;176;26475;-77
2024/01/18 00:11:05;;;;;;;86.47;36.87;;;0.40;99.90;;;;;;806170;178;26478;-78
2024/01/18 00:13:32;;;;;;;82.53;36.77;;;0.40;99.90;;;;;;807010;175;26495;-77
2024/01/18 00:15:58;;;;;;;85.83;37.07;;;0.40;99.90;;;;;;809101;176;26447;-76
2024/01/18 00:18:25;;;;;;;85.27;36.30;;;0.40;99.90;;;;;;810061;176;26498;-79
2024/01/18 00:20:53;;;;;;;80.37;35.67;;;0.30;99.90;;;;;;806167;176;26447;-79
2024/01/18 00:23:19;;;;;;;78.23;36.30;;;0.30;99.90;;;;;;807698;176;26458;-80
2024/01/18 00:25:46;;;;;;;73.07;33.87;;;0.30;99.90;;;;;;805419;178;26499;-79
2024/01/18 00:28:13;;;;;;;88.37;36.73;;;0.20;99.90;;;;;;805286;177;26433;-79
2024/01/18 00:30:39;;;;;;;84.07;36.03;;;0.20;99.90;;;;;;806167;177;26481;-79
2024/01/18 00:33:06;;;;;;;79.90;34.03;;;0.20;99.90;;;;;;805449;178;26480;-77
2024/01/18 00:35:32;;;;;;;79.30;36.93;;;0.20;99.90;;;;;;804632;177;26466;-78
2024/01/18 00:37:59;;;;;;;82.97;37.27;;;0.20;99.90;;;;;;805442;177;26444;-79
2024/01/18 00:40:26;;;;;;;79.97;37.53;;;0.20;99.90;;;;;;806358;178;26451;-75
2024/01/18 00:42:52;;;;;;;83.57;37.60;;;0.20;99.90;;;;;;805508;177;26479;-78
2024/01/18 00:45:19;;;;;;;82.73;36.83;;;0.20;99.90;;;;;;807014;177;26577;-79
2024/01/18 00:47:45;;;;;;;88.70;39.13;;;0.20;99.90;;;;;;808680;177;26899;-79
2024/01/18 00:50:12;;;;;;;85.43;34.67;;;0.30;99.90;;;;;;805654;178;26455;-79
2024/01/18 00:52:38;;;;;;;79.70;34.20;;;0.20;99.90;;;;;;805156;177;26471;-78
2024/01/18 00:55:07;;;;;;;68.37;30.67;;;0.10;99.90;;;;;;803794;178;26635;-79
2024/01/18 00:57:33;;;;;;;82.00;35.63;;;0.10;99.90;;;;;;807022;177;26522;-78
2024/01/18 01:00:00;;;;;;;62.43;29.83;;;0.00;99.50;;;;;;807191;176;26515;-78
2024/01/18 01:02:28;;;;;;;65.50;30.77;;;0.10;99.50;;;;;;803427;177;26466;-78
2024/01/18 01:04:58;;;;;;;70.03;33.90;;;0.00;99.40;;;;;;805005;177;26455;-77
2024/01/18 01:07:25;;;;;;;72.40;33.33;;;0.00;99.40;;;;;;808601;176;26434;-78
2024/01/18 01:09:53;;;;;;;91.00;39.33;;;0.10;99.90;;;;;;808623;177;26531;-78
2024/01/18 01:12:19;;;;;;;84.27;39.13;;;0.00;99.80;;;;;;812793;177;26541;-80
2024/01/18 01:14:46;;;;;;;75.13;35.93;;;0.10;99.90;;;;;;812342;177;26707;-79
2024/01/18 01:17:13;;;;;;;79.60;37.10;;;0.10;99.90;;;;;;805872;177;26454;-79
2024/01/18 01:19:40;;;;;;;83.23;36.13;;;0.10;99.90;;;;;;808975;176;26477;-79
2024/01/18 01:22:06;;;;;;;82.87;35.77;;;0.10;99.80;;;;;;806807;178;26434;-79
2024/01/18 01:24:38;;;;;;;82.43;36.37;;;0.10;99.90;;;;;;806299;178;26462;-79
2024/01/18 01:27:00;;;;;;;94.87;38.20;;;0.10;99.80;;;;;;805889;176;26471;-79
2024/01/18 01:29:26;;;;;;;83.40;36.40;;;0.10;99.90;;;;;;809654;176;26463;-77
2024/01/18 01:31:53;;;;;;;79.27;34.90;;;0.00;99.90;;;;;;807623;176;26798;-79
2024/01/18 01:34:19;;;;;;;80.40;36.47;;;0.10;99.90;;;;;;807174;176;26716;-78
2024/01/18 01:36:47;;;;;;;79.50;36.47;;;0.30;99.90;;;;;;811287;176;26483;-78
2024/01/18 01:39:14;;;;;;;82.10;36.43;;;0.20;99.90;;;;;;810256;177;26460;-78
2024/01/18 01:41:42;;;;;;;81.13;37.43;;;0.20;99.90;;;;;;808654;177;26467;-78
2024/01/18 01:44:08;;;;;;;79.10;34.47;;;0.20;99.90;;;;;;804575;177;26482;-78
2024/01/18 01:46:35;;;;;;;79.67;36.50;;;0.20;99.90;;;;;;805772;177;26470;-79
2024/01/18 01:49:02;;;;;;;77.73;34.93;;;0.10;99.90;;;;;;807421;176;26600;-79
2024/01/18 01:51:31;;;;;;;74.73;35.97;;;0.10;99.90;;;;;;805677;177;26454;-79
2024/01/18 01:53:57;;;;;;;75.60;36.50;;;0.10;99.90;;;;;;804556;178;26451;-79
2024/01/18 01:56:24;;;;;;;85.10;36.33;;;0.10;99.90;;;;;;804391;179;26450;-76
2024/01/18 01:58:51;;;;;;;86.90;39.70;;;0.10;99.90;;;;;;811266;176;26438;-78
2024/01/18 02:01:18;;;;;;;82.73;37.57;;;0.10;99.90;;;;;;809345;177;27044;-78
2024/01/18 02:03:45;;;;;;;79.77;34.53;;;0.10;99.90;;;;;;803761;178;26451;-78
2024/01/18 02:06:11;;;;;;;67.43;33.60;;;0.10;99.90;;;;;;803928;178;28149;-78
2024/01/18 02:08:38;;;;;;;80.00;37.23;;;0.00;99.90;;;;;;804145;177;26460;-77
2024/01/18 02:11:04;;;;;;;80.93;35.63;;;0.00;99.90;;;;;;812731;177;26510;-78
2024/01/18 02:13:31;;;;;;;81.90;35.53;;;0.00;99.90;;;;;;809871;177;26458;-78
2024/01/18 02:15:58;;;;;;;91.33;39.43;;;0.00;99.90;;;;;;804203;178;26466;-78
2024/01/18 02:18:24;;;;;;;82.63;36.43;;;0.00;99.90;;;;;;805807;177;26441;-77
2024/01/18 02:20:51;;;;;;;77.20;36.77;;;0.00;99.90;;;;;;808872;177;26451;-76
2024/01/18 02:23:17;;;;;;;99.10;38.80;;;-0.10;99.90;;;;;;810228;177;26487;-78
2024/01/18 02:25:44;;;;;;;84.80;37.80;;;-0.10;99.90;;;;;;806045;178;26414;-76
2024/01/18 02:28:11;;;;;;;85.27;37.63;;;-0.10;99.90;;;;;;805061;177;26503;-78
2024/01/18 02:30:38;;;;;;;81.70;37.83;;;0.00;99.90;;;;;;808400;176;26432;-78
2024/01/18 02:33:05;;;;;;;81.40;37.73;;;0.00;99.90;;;;;;806233;177;26674;-76
2024/01/18 02:35:31;;;;;;;90.20;39.20;;;0.00;99.90;;;;;;810083;176;26458;-78
2024/01/18 02:37:58;;;;;;;84.43;36.03;;;0.00;99.90;;;;;;814778;176;26437;-79
2024/01/18 02:40:24;;;;;;;89.93;39.67;;;0.10;99.90;;;;;;806830;178;26511;-79
2024/01/18 02:42:52;;;;;;;86.47;39.73;;;0.00;99.90;;;;;;804934;178;26445;-78
2024/01/18 02:45:19;;;;;;;88.47;38.57;;;0.10;99.90;;;;;;805310;176;26468;-75
2024/01/18 02:47:46;;;;;;;92.63;42.07;;;0.00;99.90;;;;;;805720;176;26587;-80
2024/01/18 02:50:12;;;;;;;84.37;37.53;;;0.10;99.90;;;;;;804765;178;26442;-78
2024/01/18 02:52:39;;;;;;;90.87;38.23;;;0.00;99.90;;;;;;805071;177;26434;-78
2024/01/18 02:55:07;;;;;;;78.17;35.13;;;-0.10;99.90;;;;;;804803;178;26980;-78
2024/01/18 02:57:33;;;;;;;80.27;34.40;;;-0.20;99.90;;;;;;805016;177;26454;-77
2024/01/18 03:00:00;;;;;;;78.93;35.37;;;-0.20;99.90;;;;;;814425;177;26446;-78
2024/01/18 03:02:27;;;;;;;79.13;36.87;;;-0.20;99.90;;;;;;803895;177;26535;-78
2024/01/18 03:04:53;;;;;;;87.67;37.70;;;-0.10;99.90;;;;;;803820;177;26529;-78
2024/01/18 03:07:20;;;;;;;93.47;39.70;;;-0.20;99.90;;;;;;803949;177;26972;-79
2024/01/18 03:09:47;;;;;;;92.73;43.03;;;-0.10;99.90;;;;;;804331;177;26455;-78
2024/01/18 03:12:13;;;;;;;94.37;40.37;;;-0.10;99.90;;;;;;812626;177;27062;-78
2024/01/18 03:14:39;;;;;;;89.03;38.87;;;-0.10;99.90;;;;;;811664;177;26565;-77
2024/01/18 03:17:08;;;;;;;97.37;41.77;;;-0.20;99.90;;;;;;809620;177;26542;-80
2024/01/18 03:19:35;;;;;;;91.83;40.67;;;-0.20;99.90;;;;;;804002;178;26989;-78
2024/01/18 03:22:01;;;;;;;100.83;42.20;;;-0.10;99.90;;;;;;808717;177;26470;-77
2024/01/18 03:24:28;;;;;;;93.67;38.80;;;-0.10;99.90;;;;;;812848;177;27080;-78
2024/01/18 03:26:55;;;;;;;100.40;42.23;;;-0.10;99.90;;;;;;812172;177;26443;-77
2024/01/18 03:29:22;;;;;;;82.97;39.40;;;-0.10;99.90;;;;;;812552;177;26496;-75
2024/01/18 03:31:48;;;;;;;82.83;40.03;;;0.00;99.90;;;;;;812487;176;26560;-78
2024/01/18 03:34:15;;;;;;;95.37;41.10;;;0.00;99.90;;;;;;814691;177;26445;-79
2024/01/18 03:36:42;;;;;;;91.27;39.60;;;0.00;99.90;;;;;;812767;177;27716;-78
2024/01/18 03:39:09;;;;;;;94.60;41.80;;;-0.10;99.90;;;;;;807790;176;27018;-78
2024/01/18 03:41:35;;;;;;;99.93;42.73;;;-0.10;99.90;;;;;;805963;178;26457;-79
2024/01/18 03:44:01;;;;;;;91.67;42.90;;;-0.10;99.90;;;;;;808436;176;26487;-78
2024/01/18 03:46:29;;;;;;;111.20;44.33;;;-0.10;99.90;;;;;;793294;172;26507;-77
2024/01/18 03:48:55;;;;;;;94.97;43.10;;;-0.10;99.90;;;;;;794037;180;26443;-79
2024/01/18 03:51:21;;;;;;;93.53;44.37;;;-0.10;99.90;;;;;;794904;173;26621;-78
2024/01/18 03:53:48;;;;;;;99.53;45.87;;;-0.10;99.90;;;;;;802414;176;26436;-77
2024/01/18 03:56:15;;;;;;;95.47;44.57;;;0.00;99.90;;;;;;787530;183;26496;-78
2024/01/18 03:58:41;;;;;;;94.67;43.83;;;0.00;99.90;;;;;;803222;168;26451;-79
2024/01/18 04:01:08;;;;;;;89.33;42.87;;;0.00;99.90;;;;;;794655;176;26446;-79
2024/01/18 04:03:34;;;;;;;89.10;41.70;;;0.00;99.90;;;;;;799788;180;26457;-78
2024/01/18 04:06:01;;;;;;;87.23;37.97;;;0.10;99.90;;;;;;789766;180;26510;-78
2024/01/18 04:08:28;;;;;;;78.73;39.23;;;0.10;99.90;;;;;;796800;179;26525;-78
2024/01/18 04:10:54;;;;;;;87.23;39.07;;;0.10;99.90;;;;;;773254;183;26514;-78
2024/01/18 04:13:21;;;;;;;95.90;41.63;;;0.00;99.90;;;;;;768931;187;26486;-78
2024/01/18 04:15:47;;;;;;;94.57;43.10;;;0.00;99.90;;;;;;786815;178;26521;-77
2024/01/18 04:18:14;;;;;;;93.67;43.93;;;0.00;99.90;;;;;;779207;184;26577;-77
2024/01/18 04:20:41;;;;;;;91.70;42.33;;;0.10;99.90;;;;;;788885;180;26472;-76
2024/01/18 04:23:07;;;;;;;90.00;42.80;;;0.10;99.90;;;;;;797062;177;27076;-77
2024/01/18 04:25:34;;;;;;;94.83;44.10;;;0.00;99.90;;;;;;774245;184;26529;-75
2024/01/18 04:28:00;;;;;;;95.30;43.23;;;0.00;99.90;;;;;;771540;184;26525;-78
2024/01/18 04:30:27;;;;;;;91.30;42.57;;;-0.10;99.90;;;;;;774083;184;27766;-78
2024/01/18 04:32:53;;;;;;;109.63;46.87;;;0.00;99.90;;;;;;779239;185;26475;-78
2024/01/18 04:35:20;;;;;;;110.70;51.40;;;-0.10;99.90;;;;;;779428;183;26495;-78
2024/01/18 04:37:47;;;;;;;107.77;50.27;;;0.00;99.90;;;;;;791706;179;26483;-78
2024/01/18 04:40:13;;;;;;;97.20;46.03;;;-0.10;99.90;;;;;;791672;180;26996;-78
2024/01/18 04:42:40;;;;;;;106.97;48.27;;;-0.20;99.90;;;;;;779113;184;26515;-78
2024/01/18 04:45:07;;;;;;;118.97;50.77;;;-0.10;99.90;;;;;;798256;179;27012;-78
2024/01/18 04:47:33;;;;;;;112.83;47.90;;;0.00;99.90;;;;;;792025;180;26468;-78
2024/01/18 04:50:00;;;;;;;102.47;45.73;;;-0.20;99.90;;;;;;790965;179;26535;-78
2024/01/18 04:52:26;;;;;;;114.40;49.90;;;-0.10;99.90;;;;;;786269;180;26458;-78
2024/01/18 04:54:56;;;;;;;99.53;45.90;;;0.00;99.90;;;;;;804805;175;26439;-75
2024/01/18 04:57:20;;;;;;;109.57;44.50;;;0.00;99.90;;;;;;793239;177;26494;-77
2024/01/18 04:59:46;;;;;;;102.07;46.00;;;-0.10;99.90;;;;;;778843;182;26481;-78
2024/01/18 05:02:13;;;;;;;107.37;46.83;;;-0.10;99.90;;;;;;801615;179;26508;-78
2024/01/18 05:04:39;;;;;;;109.63;46.10;;;-0.10;99.90;;;;;;801695;179;26495;-78
2024/01/18 05:07:06;;;;;;;105.20;46.27;;;-0.20;99.90;;;;;;798559;176;26456;-75
2024/01/18 05:09:33;;;;;;;113.07;47.50;;;-0.20;99.90;;;;;;790910;180;26454;-77
2024/01/18 05:11:59;;;;;;;101.37;47.23;;;-0.20;99.90;;;;;;801885;179;26519;-78
2024/01/18 05:14:26;;;;;;;107.97;48.93;;;-0.30;99.90;;;;;;781957;183;26471;-78
2024/01/18 05:16:54;;;;;;;114.27;51.50;;;-0.30;99.90;;;;;;798756;179;26494;-79
2024/01/18 05:19:19;;;;;;;117.90;51.73;;;-0.20;99.90;;;;;;778493;184;26518;-79
2024/01/18 05:21:46;;;;;;;128.23;56.93;;;-0.20;99.90;;;;;;777750;184;26488;-78
2024/01/18 05:24:12;;;;;;;118.37;52.47;;;-0.20;99.90;;;;;;779394;184;26500;-81
2024/01/18 05:26:39;;;;;;;115.77;50.33;;;-0.20;99.90;;;;;;780062;183;27033;-80
2024/01/18 05:29:06;;;;;;;122.63;54.10;;;-0.30;99.90;;;;;;776437;184;26472;-79
2024/01/18 05:31:32;;;;;;;126.97;54.23;;;-0.30;99.90;;;;;;782184;184;26483;-79
2024/01/18 05:33:59;;;;;;;126.00;53.00;;;-0.20;99.90;;;;;;784344;184;26476;-77
2024/01/18 05:36:25;;;;;;;112.93;51.83;;;-0.20;99.90;;;;;;771332;184;26483;-78
2024/01/18 05:38:52;;;;;;;118.93;51.67;;;-0.10;99.90;;;;;;775609;184;26479;-78
2024/01/18 05:41:18;;;;;;;115.60;54.33;;;-0.10;99.90;;;;;;786617;179;26558;-78
2024/01/18 05:43:45;;;;;;;116.97;51.80;;;-0.20;99.90;;;;;;781660;183;26495;-77
2024/01/18 05:46:11;;;;;;;112.43;51.90;;;-0.20;99.90;;;;;;796657;179;26532;-77
2024/01/18 05:48:38;;;;;;;120.53;54.37;;;-0.20;99.90;;;;;;794930;179;27054;-77
2024/01/18 05:51:05;;;;;;;109.03;49.27;;;-0.20;99.90;;;;;;783668;180;26446;-76
2024/01/18 05:53:31;;;;;;;131.40;57.63;;;-0.20;99.90;;;;;;800114;179;26467;-77
2024/01/18 05:55:59;;;;;;;126.00;56.90;;;-0.10;99.90;;;;;;791196;179;27066;-78
2024/01/18 05:58:24;;;;;;;122.00;56.60;;;-0.10;99.90;;;;;;789312;180;26478;-77
2024/01/18 06:00:51;;;;;;;107.47;51.20;;;0.00;99.90;;;;;;786046;180;26455;-77
2024/01/18 06:03:18;;;;;;;122.80;56.33;;;0.10;99.90;;;;;;778176;182;26484;-78
2024/01/18 06:05:45;;;;;;;125.60;56.03;;;0.00;99.90;;;;;;791852;179;26513;-77
2024/01/18 06:08:12;;;;;;;123.53;54.37;;;0.10;99.90;;;;;;792011;180;26495;-79
2024/01/18 06:10:38;;;;;;;116.83;54.37;;;0.00;99.90;;;;;;780662;182;26495;-77
2024/01/18 06:13:05;;;;;;;122.73;52.80;;;-0.10;99.90;;;;;;798865;180;26488;-79
2024/01/18 06:15:31;;;;;;;130.10;56.20;;;-0.10;99.90;;;;;;775782;183;26491;-78
2024/01/18 06:18:03;;;;;;;121.30;57.20;;;0.00;99.90;;;;;;782815;180;26488;-78
2024/01/18 06:20:25;;;;;;;117.70;54.13;;;0.00;99.90;;;;;;784845;180;26692;-79
2024/01/18 06:22:52;;;;;;;116.27;54.07;;;0.00;99.90;;;;;;779594;184;26480;-79
2024/01/18 06:25:18;;;;;;;132.53;55.23;;;0.00;99.90;;;;;;764075;187;26555;-75
2024/01/18 06:27:44;;;;;;;120.97;56.13;;;0.10;99.90;;;;;;798853;179;26460;-79
2024/01/18 06:30:12;;;;;;;132.93;58.23;;;0.10;99.90;;;;;;783840;183;26475;-78
2024/01/18 06:32:39;;;;;;;128.23;54.07;;;0.10;99.90;;;;;;781577;181;27032;-78
2024/01/18 06:35:05;;;;;;;111.47;52.03;;;0.00;99.90;;;;;;789495;180;26471;-78
2024/01/18 06:37:32;;;;;;;134.23;58.50;;;0.00;99.90;;;;;;792126;180;26454;-78
2024/01/18 06:39:59;;;;;;;136.33;60.27;;;0.00;99.90;;;;;;797900;179;26463;-78
2024/01/18 06:42:25;;;;;;;136.60;60.07;;;0.00;99.90;;;;;;797601;180;26481;-79
2024/01/18 06:44:52;;;;;;;139.30;61.17;;;0.00;99.90;;;;;;798473;179;26480;-79
2024/01/18 06:47:18;;;;;;;132.13;58.10;;;0.00;99.90;;;;;;793844;179;26505;-78
2024/01/18 06:49:45;;;;;;;116.13;54.47;;;0.10;99.90;;;;;;787493;180;26455;-79
2024/01/18 06:52:13;;;;;;;123.87;56.00;;;0.20;99.90;;;;;;793006;179;26452;-78
2024/01/18 06:54:39;;;;;;;119.63;55.70;;;0.20;99.90;;;;;;800566;179;26484;-79
2024/01/18 06:57:06;;;;;;;116.60;51.13;;;0.20;99.90;;;;;;792010;179;26455;-79
2024/01/18 06:59:32;;;;;;;128.20;57.00;;;0.20;99.90;;;;;;783488;183;26477;-78
2024/01/18 07:01:59;;;;;;;129.60;55.00;;;0.20;99.90;;;;;;796556;179;26439;-78
2024/01/18 07:04:25;;;;;;;110.27;52.07;;;0.20;99.90;;;;;;800189;179;26451;-78
2024/01/18 07:06:52;;;;;;;114.90;50.37;;;0.20;99.90;;;;;;805662;173;26468;-78
2024/01/18 07:09:18;;;;;;;107.23;48.63;;;0.20;99.90;;;;;;809389;176;26439;-77
2024/01/18 07:11:46;;;;;;;119.27;52.87;;;0.20;99.90;;;;;;814018;176;26443;-77
2024/01/18 07:14:12;;;;;;;111.53;51.40;;;0.20;99.90;;;;;;803053;175;26437;-75
2024/01/18 07:16:38;;;;;;;123.97;56.93;;;0.20;99.90;;;;;;814507;175;26426;-78
2024/01/18 07:19:05;;;;;;;110.77;51.27;;;0.20;99.90;;;;;;806519;174;26454;-78
2024/01/18 07:21:31;;;;;;;107.73;50.33;;;0.20;99.90;;;;;;800616;175;26510;-78
2024/01/18 07:23:58;;;;;;;108.90;50.30;;;0.20;99.90;;;;;;799568;177;26971;-78
2024/01/18 07:26:25;;;;;;;99.27;46.73;;;0.20;99.90;;;;;;805876;176;27685;-77
2024/01/18 07:28:51;;;;;;;102.63;46.97;;;0.20;99.90;;;;;;801229;179;26849;-78
2024/01/18 07:31:18;;;;;;;107.67;47.63;;;0.20;99.90;;;;;;816977;176;26438;-74
2024/01/18 07:33:45;;;;;;;109.17;47.63;;;0.20;99.90;;;;;;816372;176;26436;-77
2024/01/18 07:36:11;;;;;;;111.13;50.07;;;0.20;99.90;;;;;;814738;176;27234;-77
2024/01/18 07:38:38;;;;;;;113.10;52.33;;;0.20;99.90;;;;;;808282;176;26608;-77
2024/01/18 07:41:04;;;;;;;106.00;50.47;;;0.20;99.90;;;;;;805424;176;26569;-77
2024/01/18 07:43:31;;;;;;;113.17;51.10;;;0.10;99.90;;;;;;797873;178;26442;-76
2024/01/18 07:45:58;;;;;;;102.40;49.50;;;0.10;99.90;;;;;;803134;176;26467;-77
2024/01/18 07:48:25;;;;;;;109.87;49.53;;;0.00;99.90;;;;;;811064;176;28124;-77
2024/01/18 07:50:51;;;;;;;105.93;49.33;;;0.10;99.90;;;;;;810055;178;26470;-77
2024/01/18 07:53:18;;;;;;;99.30;48.23;;;0.00;99.90;;;;;;810100;177;26449;-75
2024/01/18 07:55:44;;;;;;;104.57;49.33;;;0.00;99.90;;;;;;808248;176;26615;-77
2024/01/18 07:58:11;;;;;;;97.73;45.53;;;0.00;99.90;;;;;;803323;176;26438;-78
2024/01/18 08:00:37;;;;;;;107.17;48.33;;;0.00;99.90;;;;;;797903;180;26438;-78
2024/01/18 08:03:04;;;;;;;108.10;48.97;;;0.00;99.90;;;;;;803360;176;26426;-78
2024/01/18 08:05:31;;;;;;;114.73;50.53;;;0.10;99.90;;;;;;804311;174;26449;-76
2024/01/18 08:07:58;;;;;;;106.63;50.10;;;0.10;99.90;;;;;;797315;180;26512;-78
2024/01/18 08:10:24;;;;;;;104.77;49.33;;;0.00;99.90;;;;;;809011;176;26432;-78
2024/01/18 08:12:52;;;;;;;115.90;52.90;;;0.00;99.90;;;;;;800682;176;26440;-78
2024/01/18 08:15:18;;;;;;;119.87;52.03;;;0.00;99.90;;;;;;807509;176;26429;-78
2024/01/18 08:17:44;;;;;;;118.60;52.17;;;-0.10;99.90;;;;;;810105;176;27005;-78
2024/01/18 08:20:14;;;;;;;115.00;51.30;;;-0.10;99.90;;;;;;807981;176;26430;-78
2024/01/18 08:22:40;;;;;;;111.37;50.73;;;-0.10;99.90;;;;;;808514;176;26450;-77
2024/01/18 08:25:10;;;;;;;108.53;48.03;;;-0.10;99.90;;;;;;807035;176;26480;-78
2024/01/18 08:27:35;;;;;;;119.83;51.13;;;-0.10;99.90;;;;;;789525;180;26466;-76
2024/01/18 08:30:03;;;;;;;117.33;49.90;;;-0.10;99.90;;;;;;809781;173;26422;-76
2024/01/18 08:32:31;;;;;;;109.27;50.93;;;-0.20;99.90;;;;;;792541;179;26443;-77
2024/01/18 08:34:55;;;;;;;107.57;49.23;;;-0.20;99.90;;;;;;804931;176;26438;-77
2024/01/18 08:37:21;;;;;;;113.03;49.03;;;-0.30;99.90;;;;;;817457;176;27038;-77
2024/01/18 08:39:48;;;;;;;120.67;54.00;;;-0.30;99.90;;;;;;810928;176;26458;-77
2024/01/18 08:42:14;;;;;;;120.93;52.77;;;-0.20;99.90;;;;;;806780;174;26429;-77
2024/01/18 08:44:45;;;;;;;132.93;54.07;;;-0.30;99.90;;;;;;806388;176;26482;-77
2024/01/18 08:47:10;;;;;;;120.20;54.47;;;-0.40;99.90;;;;;;808515;176;27057;-76
2024/01/18 08:49:35;;;;;;;123.77;55.77;;;-0.30;99.90;;;;;;808266;176;26429;-77
2024/01/18 08:52:01;;;;;;;124.53;53.03;;;-0.40;99.90;;;;;;807225;176;26428;-77
2024/01/18 08:54:28;;;;;;;119.73;51.83;;;-0.40;99.90;;;;;;815756;173;27216;-76
2024/01/18 08:56:54;;;;;;;110.00;52.07;;;-0.40;99.90;;;;;;807918;176;26442;-77
2024/01/18 08:59:21;;;;;;;121.03;54.57;;;-0.40;99.90;;;;;;805158;176;26450;-76
2024/01/18 09:01:48;;;;;;;121.57;56.00;;;-0.40;99.90;;;;;;807918;176;26421;-74
2024/01/18 09:04:14;;;;;;;125.73;54.93;;;-0.30;99.90;;;;;;810525;176;26438;-76
2024/01/18 09:06:41;;;;;;;126.37;56.20;;;-0.30;99.90;;;;;;806768;176;26467;-77
2024/01/18 09:09:11;;;;;;;117.77;52.87;;;-0.10;99.90;;;;;;807919;176;27010;-78
2024/01/18 09:11:37;;;;;;;126.30;56.70;;;0.00;99.90;;;;;;804224;177;26430;-77
2024/01/18 09:14:03;;;;;;;116.77;54.33;;;0.00;99.90;;;;;;786887;179;26469;-77
2024/01/18 09:16:31;;;;;;;123.03;55.83;;;0.10;99.90;;;;;;798391;179;26471;-77
2024/01/18 09:18:57;;;;;;;106.90;50.20;;;0.10;99.80;;;;;;803659;179;26636;-77
2024/01/18 09:21:24;;;;;;;106.13;48.80;;;0.20;99.70;;;;;;803594;179;26471;-77
2024/01/18 09:23:50;;;;;;;102.30;49.80;;;0.20;99.50;;;;;;808109;172;26437;-79
2024/01/18 09:26:17;;;;;;;120.47;51.60;;;0.30;99.30;;;;;;805695;176;26422;-78
2024/01/18 09:28:44;;;;;;;99.40;46.20;;;0.40;98.90;;;;;;814711;177;26605;-78
2024/01/18 09:31:10;;;;;;;114.50;47.80;;;0.50;98.30;;;;;;813744;176;26412;-77
2024/01/18 09:33:38;;;;;;;93.63;45.70;;;0.60;98.10;;;;;;806736;176;26429;-78
2024/01/18 09:36:05;;;;;;;99.47;48.93;;;0.50;97.60;;;;;;804669;176;26620;-78
2024/01/18 09:38:33;;;;;;;93.27;43.70;;;0.60;98.20;;;;;;793820;176;26470;-79
2024/01/18 09:41:03;;;;;;;102.87;49.73;;;0.60;97.60;;;;;;806855;175;26435;-79
2024/01/18 09:43:28;;;;;;;101.67;49.17;;;0.50;97.50;;;;;;811691;175;26429;-78
2024/01/18 09:45:54;;;;;;;112.53;51.97;;;0.50;97.60;;;;;;812696;175;26480;-78
2024/01/18 09:48:22;;;;;;;94.20;45.87;;;0.60;98.00;;;;;;789215;179;26494;-79
2024/01/18 09:50:48;;;;;;;99.37;50.43;;;0.70;98.50;;;;;;801252;179;26457;-78
2024/01/18 09:53:14;;;;;;;98.37;46.87;;;0.80;98.60;;;;;;788679;182;26995;-78
2024/01/18 09:55:41;;;;;;;95.23;48.07;;;0.90;97.70;;;;;;801254;176;26473;-76
2024/01/18 09:58:08;;;;;;;91.30;46.50;;;0.90;97.70;;;;;;809051;175;26467;-79
2024/01/18 10:00:35;;;;;;;89.57;44.20;;;1.00;98.00;;;;;;790600;179;27039;-79
2024/01/18 10:03:02;;;;;;;99.60;46.40;;;1.10;97.70;;;;;;785715;179;26473;-79
2024/01/18 10:05:29;;;;;;;100.40;46.97;;;1.10;97.50;;;;;;806091;176;26427;-78
2024/01/18 10:07:56;;;;;;;96.00;46.90;;;1.20;97.60;;;;;;805211;176;26451;-77
2024/01/18 10:10:28;;;;;;;104.07;48.17;;;1.20;97.80;;;;;;808202;172;26580;-77
2024/01/18 10:12:53;;;;;;;101.40;48.03;;;1.20;97.10;;;;;;810439;176;26471;-78
2024/01/18 10:15:26;;;;;;;103.67;50.50;;;1.10;96.90;;;;;;817777;176;26436;-79
2024/01/18 10:17:53;;;;;;;105.47;49.13;;;1.10;97.10;;;;;;823244;174;26413;-78
2024/01/18 10:20:19;;;;;;;109.87;50.40;;;1.10;97.10;;;;;;811433;176;26448;-78
2024/01/18 10:22:46;;;;;;;102.47;50.47;;;1.10;97.20;;;;;;807419;176;26431;-78
2024/01/18 10:25:13;;;;;;;119.03;49.90;;;1.20;97.10;;;;;;812761;176;26440;-77
2024/01/18 10:27:42;;;;;;;96.77;46.70;;;1.30;96.80;;;;;;807594;176;26458;-77
2024/01/18 10:30:11;;;;;;;107.77;51.27;;;1.40;96.10;;;;;;810912;176;26421;-78
2024/01/18 10:32:41;;;;;;;106.83;51.13;;;1.40;96.50;;;;;;810017;176;26447;-78
2024/01/18 10:35:08;;;;;;;95.53;44.17;;;1.50;96.70;;;;;;798550;179;26456;-77
2024/01/18 10:37:35;;;;;;;118.93;53.27;;;1.50;95.90;;;;;;808583;176;26883;-76
2024/01/18 10:40:02;;;;;;;101.40;47.53;;;1.50;96.30;;;;;;808170;176;26425;-77
2024/01/18 10:42:28;;;;;;;102.67;48.17;;;1.60;96.30;;;;;;803391;176;26433;-78
2024/01/18 10:44:55;;;;;;;111.70;50.10;;;1.50;96.00;;;;;;815419;176;26393;-78
2024/01/18 10:47:48;;;;;;;;;;;;;;;;;;;;;
2024/01/18 10:50:07;;;;;;;97.40;46.37;;;1.90;96.10;;;;;;817300;171;26409;-77
2024/01/18 10:52:41;;;;;;;83.83;43.27;;;2.20;96.00;;;;;;805347;175;27052;-77
2024/01/18 10:55:25;;;;;;;95.53;44.67;;;3.20;94.30;;;;;;806366;175;26450;-77
2024/01/18 10:58:01;;;;;;;79.43;41.57;;;4.20;92.40;;;;;;812682;175;26438;-78
2024/01/18 11:00:32;;;;;;;83.50;40.40;;;5.20;89.40;;;;;;807431;176;26425;-78
2024/01/18 11:03:02;;;;;;;69.10;37.83;;;5.80;88.80;;;;;;816027;176;26473;-78
2024/01/18 11:05:35;;;;;;;85.70;42.57;;;6.70;82.60;;;;;;810471;176;26438;-79
2024/01/18 11:08:03;;;;;;;71.83;37.10;;;6.70;81.90;;;;;;800154;179;26468;-79
2024/01/18 11:10:28;;;;;;;74.13;36.03;;;7.40;79.20;;;;;;806846;176;26434;-79
2024/01/18 11:12:55;;;;;;;70.60;36.73;;;7.70;76.70;;;;;;802739;176;26447;-79
2024/01/18 11:15:22;;;;;;;73.70;35.33;;;7.40;77.30;;;;;;806507;176;26426;-78
2024/01/18 11:17:51;;;;;;;58.00;32.37;;;7.60;76.20;;;;;;811650;176;26730;-80
2024/01/18 11:20:16;;;;;;;65.50;35.63;;;8.10;72.60;;;;;;808266;176;26439;-78
2024/01/18 11:22:42;;;;;;;59.30;34.97;;;7.10;76.70;;;;;;804259;176;26425;-81
2024/01/18 11:25:10;;;;;;;60.83;35.83;;;6.30;80.00;;;;;;803578;176;26476;-78
2024/01/18 11:27:37;;;;;;;78.27;38.77;;;6.50;79.40;;;;;;810009;176;26491;-77
2024/01/18 11:30:03;;;;;;;71.00;38.63;;;7.30;80.10;;;;;;811503;176;26446;-79
2024/01/18 11:32:30;;;;;;;71.13;37.93;;;8.20;75.90;;;;;;808956;176;26457;-77
2024/01/18 11:35:14;;;;;;;60.73;33.73;;;7.60;80.10;;;;;;817334;176;26436;-79
2024/01/18 11:37:40;;;;;;;66.70;36.23;;;8.20;76.50;;;;;;801616;179;26478;-79
2024/01/18 11:40:08;;;;;;;62.23;34.47;;;8.20;71.90;;;;;;816534;176;26441;-80
2024/01/18 11:42:35;;;;;;;58.73;32.80;;;8.30;73.80;;;;;;801190;176;26429;-78
2024/01/18 11:45:04;;;;;;;60.93;32.93;;;8.50;73.30;;;;;;803005;176;26415;-79
2024/01/18 11:47:31;;;;;;;63.40;34.47;;;7.90;72.50;;;;;;799916;176;26451;-80
2024/01/18 11:49:58;;;;;;;59.83;33.70;;;7.30;77.70;;;;;;805456;177;26410;-80
2024/01/18 11:52:25;;;;;;;65.97;33.10;;;8.20;77.60;;;;;;818903;174;26464;-80
2024/01/18 11:54:52;;;;;;;62.07;34.33;;;8.80;69.50;;;;;;801873;179;26439;-79
2024/01/18 11:57:18;;;;;;;70.10;37.17;;;8.40;70.90;;;;;;801086;176;26425;-80
2024/01/18 11:59:46;;;;;;;57.03;31.10;;;8.10;71.70;;;;;;819141;176;26433;-80
2024/01/18 12:02:11;;;;;;;55.57;30.53;;;8.20;70.90;;;;;;822245;171;26430;-80
2024/01/18 12:04:38;;;;;;;50.67;29.83;;;8.70;69.30;;;;;;821192;173;26404;-81
2024/01/18 12:07:05;;;;;;;58.63;30.60;;;8.70;72.10;;;;;;810502;175;26427;-79
2024/01/18 12:09:32;;;;;;;109.03;49.57;;;8.50;72.50;;;;;;806218;176;26434;-80
2024/01/18 12:11:59;;;;;;;58.93;31.37;;;10.20;70.70;;;;;;813417;176;26486;-81
2024/01/18 12:14:26;;;;;;;52.60;31.07;;;10.70;60.40;;;;;;810752;176;26446;-79
2024/01/18 12:16:53;;;;;;;60.03;32.23;;;9.90;63.70;;;;;;808040;176;26734;-79
2024/01/18 12:19:28;;;;;;;51.20;30.57;;;9.60;64.20;;;;;;799910;179;26472;-80
2024/01/18 12:21:55;;;;;;;57.70;31.17;;;8.50;66.50;;;;;;813426;176;26432;-80
2024/01/18 12:24:21;;;;;;;51.43;30.17;;;7.40;75.80;;;;;;808832;176;26427;-80
2024/01/18 12:26:48;;;;;;;56.60;30.87;;;7.80;74.00;;;;;;814864;172;26478;-80
2024/01/18 12:29:15;;;;;;;55.00;31.57;;;8.10;73.70;;;;;;810049;176;26435;-81